sensor_id;sensor_type;location;lat;lon;timestamp;temperature;humidity
48734;DHT22;34530;52.084;5.146;2023-04-10T00:01:46;18.60;61.00
48734;DHT22;34530;52.084;5.146;2023-04-10T00:04:11;18.60;61.00
48734;DHT22;34530;52.084;5.146;2023-04-10T00:06:38;18.60;61.00
48734;DHT22;34530;52.084;5.146;2023-04-10T00:09:05;18.60;60.90
48734;DHT22;34530;52.084;5.146;2023-04-10T00:11:30;18.60;61.00
48734;DHT22;34530;52.084;5.146;2023-04-10T00:13:56;18.60;60.90
48734;DHT22;34530;52.084;5.146;2023-04-10T00:16:22;18.60;60.90
48734;DHT22;34530;52.084;5.146;2023-04-10T00:18:47;18.60;60.90
48734;DHT22;34530;52.084;5.146;2023-04-10T00:21:13;18.60;60.90
48734;DHT22;34530;52.084;5.146;2023-04-10T00:23:38;18.50;60.80
48734;DHT22;34530;52.084;5.146;2023-04-10T00:26:05;18.50;60.80
48734;DHT22;34530;52.084;5.146;2023-04-10T00:28:30;18.50;60.80
48734;DHT22;34530;52.084;5.146;2023-04-10T00:30:56;18.50;60.80
48734;DHT22;34530;52.084;5.146;2023-04-10T00:33:21;18.50;60.70
48734;DHT22;34530;52.084;5.146;2023-04-10T00:35:47;18.50;60.80
48734;DHT22;34530;52.084;5.146;2023-04-10T00:38:12;18.50;60.80
48734;DHT22;34530;52.084;5.146;2023-04-10T00:40:38;18.50;60.70
48734;DHT22;34530;52.084;5.146;2023-04-10T00:43:03;18.50;60.70
48734;DHT22;34530;52.084;5.146;2023-04-10T00:45:29;18.50;60.80
48734;DHT22;34530;52.084;5.146;2023-04-10T00:47:55;18.50;60.80
48734;DHT22;34530;52.084;5.146;2023-04-10T00:50:22;18.50;61.20
48734;DHT22;34530;52.084;5.146;2023-04-10T00:52:48;18.50;60.70
48734;DHT22;34530;52.084;5.146;2023-04-10T00:55:14;18.40;60.60
48734;DHT22;34530;52.084;5.146;2023-04-10T00:57:44;18.40;60.60
48734;DHT22;34530;52.084;5.146;2023-04-10T01:00:12;18.40;60.50
48734;DHT22;34530;52.084;5.146;2023-04-10T01:02:38;18.40;60.50
48734;DHT22;34530;52.084;5.146;2023-04-10T01:05:04;18.40;60.50
48734;DHT22;34530;52.084;5.146;2023-04-10T01:10:19;18.40;60.40
48734;DHT22;34530;52.084;5.146;2023-04-10T01:13:10;18.40;60.40
48734;DHT22;34530;52.084;5.146;2023-04-10T01:15:57;18.40;60.40
48734;DHT22;34530;52.084;5.146;2023-04-10T01:18:40;18.40;60.50
48734;DHT22;34530;52.084;5.146;2023-04-10T01:21:10;18.40;60.50
48734;DHT22;34530;52.084;5.146;2023-04-10T01:26:38;18.40;60.50
48734;DHT22;34530;52.084;5.146;2023-04-10T01:29:08;18.30;60.40
48734;DHT22;34530;52.084;5.146;2023-04-10T01:31:42;18.30;60.50
48734;DHT22;34530;52.084;5.146;2023-04-10T01:34:20;18.30;60.50
48734;DHT22;34530;52.084;5.146;2023-04-10T01:36:49;18.30;60.50
48734;DHT22;34530;52.084;5.146;2023-04-10T01:39:19;18.30;60.50
48734;DHT22;34530;52.084;5.146;2023-04-10T01:41:46;18.30;60.50
48734;DHT22;34530;52.084;5.146;2023-04-10T01:44:14;18.30;60.50
48734;DHT22;34530;52.084;5.146;2023-04-10T01:46:43;18.30;60.50
48734;DHT22;34530;52.084;5.146;2023-04-10T01:49:09;18.30;60.40
48734;DHT22;34530;52.084;5.146;2023-04-10T01:51:36;18.30;60.40
48734;DHT22;34530;52.084;5.146;2023-04-10T01:54:02;18.30;60.40
48734;DHT22;34530;52.084;5.146;2023-04-10T01:56:30;18.20;60.30
48734;DHT22;34530;52.084;5.146;2023-04-10T01:58:57;18.20;60.30
48734;DHT22;34530;52.084;5.146;2023-04-10T02:01:23;18.20;60.30
48734;DHT22;34530;52.084;5.146;2023-04-10T02:03:49;18.20;60.30
48734;DHT22;34530;52.084;5.146;2023-04-10T02:09:15;18.20;60.20
48734;DHT22;34530;52.084;5.146;2023-04-10T02:11:57;18.20;60.20
48734;DHT22;34530;52.084;5.146;2023-04-10T02:14:25;18.20;60.20
48734;DHT22;34530;52.084;5.146;2023-04-10T02:16:54;18.20;60.30
48734;DHT22;34530;52.084;5.146;2023-04-10T02:19:21;18.20;60.30
48734;DHT22;34530;52.084;5.146;2023-04-10T02:21:49;18.20;60.20
48734;DHT22;34530;52.084;5.146;2023-04-10T02:24:15;18.20;60.30
48734;DHT22;34530;52.084;5.146;2023-04-10T02:26:51;18.10;60.20
48734;DHT22;34530;52.084;5.146;2023-04-10T02:29:17;18.20;60.20
48734;DHT22;34530;52.084;5.146;2023-04-10T02:31:44;18.10;60.20
48734;DHT22;34530;52.084;5.146;2023-04-10T02:34:10;18.10;60.20
48734;DHT22;34530;52.084;5.146;2023-04-10T02:36:37;18.10;60.20
48734;DHT22;34530;52.084;5.146;2023-04-10T02:39:03;18.10;61.00
48734;DHT22;34530;52.084;5.146;2023-04-10T02:41:29;18.10;60.20
48734;DHT22;34530;52.084;5.146;2023-04-10T02:43:55;18.10;60.20
48734;DHT22;34530;52.084;5.146;2023-04-10T02:46:21;18.10;60.20
48734;DHT22;34530;52.084;5.146;2023-04-10T02:48:46;18.10;60.20
48734;DHT22;34530;52.084;5.146;2023-04-10T02:51:12;18.10;60.20
48734;DHT22;34530;52.084;5.146;2023-04-10T02:53:38;18.10;60.20
48734;DHT22;34530;52.084;5.146;2023-04-10T02:56:04;18.10;60.20
48734;DHT22;34530;52.084;5.146;2023-04-10T02:58:31;18.00;60.10
48734;DHT22;34530;52.084;5.146;2023-04-10T03:00:57;18.00;60.10
48734;DHT22;34530;52.084;5.146;2023-04-10T03:03:23;18.00;60.10
48734;DHT22;34530;52.084;5.146;2023-04-10T03:05:49;18.00;60.90
48734;DHT22;34530;52.084;5.146;2023-04-10T03:08:15;18.00;60.20
48734;DHT22;34530;52.084;5.146;2023-04-10T03:10:43;18.00;60.10
48734;DHT22;34530;52.084;5.146;2023-04-10T03:13:09;18.00;60.10
48734;DHT22;34530;52.084;5.146;2023-04-10T03:15:35;18.00;60.10
48734;DHT22;34530;52.084;5.146;2023-04-10T03:18:01;18.00;60.10
48734;DHT22;34530;52.084;5.146;2023-04-10T03:20:26;18.00;60.20
48734;DHT22;34530;52.084;5.146;2023-04-10T03:22:52;18.00;60.10
48734;DHT22;34530;52.084;5.146;2023-04-10T03:25:18;17.90;60.10
48734;DHT22;34530;52.084;5.146;2023-04-10T03:27:43;17.90;60.10
48734;DHT22;34530;52.084;5.146;2023-04-10T03:30:10;17.90;60.10
48734;DHT22;34530;52.084;5.146;2023-04-10T03:32:35;17.90;60.10
48734;DHT22;34530;52.084;5.146;2023-04-10T03:35:01;17.90;60.10
48734;DHT22;34530;52.084;5.146;2023-04-10T03:37:27;17.90;60.10
48734;DHT22;34530;52.084;5.146;2023-04-10T03:39:52;17.90;60.90
48734;DHT22;34530;52.084;5.146;2023-04-10T03:42:18;17.90;60.00
48734;DHT22;34530;52.084;5.146;2023-04-10T03:44:44;17.90;60.10
48734;DHT22;34530;52.084;5.146;2023-04-10T03:47:10;17.90;60.10
48734;DHT22;34530;52.084;5.146;2023-04-10T03:49:35;17.90;60.10
48734;DHT22;34530;52.084;5.146;2023-04-10T03:52:01;17.90;60.10
48734;DHT22;34530;52.084;5.146;2023-04-10T03:54:26;17.90;60.10
48734;DHT22;34530;52.084;5.146;2023-04-10T03:56:52;17.90;60.10
48734;DHT22;34530;52.084;5.146;2023-04-10T03:59:17;17.80;60.00
48734;DHT22;34530;52.084;5.146;2023-04-10T04:01:43;17.80;60.00
48734;DHT22;34530;52.084;5.146;2023-04-10T04:04:08;17.80;60.00
48734;DHT22;34530;52.084;5.146;2023-04-10T04:06:34;17.80;60.00
48734;DHT22;34530;52.084;5.146;2023-04-10T04:09:00;17.80;60.10
48734;DHT22;34530;52.084;5.146;2023-04-10T04:11:25;17.80;60.00
48734;DHT22;34530;52.084;5.146;2023-04-10T04:13:52;17.80;60.00
48734;DHT22;34530;52.084;5.146;2023-04-10T04:16:17;17.80;60.00
48734;DHT22;34530;52.084;5.146;2023-04-10T04:18:43;17.80;60.00
48734;DHT22;34530;52.084;5.146;2023-04-10T04:21:08;17.80;60.00
48734;DHT22;34530;52.084;5.146;2023-04-10T04:23:34;17.80;60.00
48734;DHT22;34530;52.084;5.146;2023-04-10T04:26:00;17.80;60.00
48734;DHT22;34530;52.084;5.146;2023-04-10T04:28:25;17.80;60.00
48734;DHT22;34530;52.084;5.146;2023-04-10T04:30:51;17.80;60.00
48734;DHT22;34530;52.084;5.146;2023-04-10T04:33:17;17.70;60.00
48734;DHT22;34530;52.084;5.146;2023-04-10T04:35:42;17.80;60.00
48734;DHT22;34530;52.084;5.146;2023-04-10T04:38:08;17.70;60.00
48734;DHT22;34530;52.084;5.146;2023-04-10T04:40:33;17.70;60.00
48734;DHT22;34530;52.084;5.146;2023-04-10T04:42:59;17.70;60.00
48734;DHT22;34530;52.084;5.146;2023-04-10T04:45:24;17.70;60.00
48734;DHT22;34530;52.084;5.146;2023-04-10T04:47:50;17.70;60.00
48734;DHT22;34530;52.084;5.146;2023-04-10T04:50:16;17.70;60.00
48734;DHT22;34530;52.084;5.146;2023-04-10T04:52:42;17.70;60.00
48734;DHT22;34530;52.084;5.146;2023-04-10T04:55:09;17.70;60.00
48734;DHT22;34530;52.084;5.146;2023-04-10T04:57:34;17.70;60.00
48734;DHT22;34530;52.084;5.146;2023-04-10T05:00:00;17.70;60.00
48734;DHT22;34530;52.084;5.146;2023-04-10T05:02:25;17.70;60.00
48734;DHT22;34530;52.084;5.146;2023-04-10T05:04:51;17.70;60.00
48734;DHT22;34530;52.084;5.146;2023-04-10T05:07:16;17.60;59.90
48734;DHT22;34530;52.084;5.146;2023-04-10T05:09:42;17.60;59.90
48734;DHT22;34530;52.084;5.146;2023-04-10T05:12:08;17.60;59.90
48734;DHT22;34530;52.084;5.146;2023-04-10T05:14:33;17.60;59.90
48734;DHT22;34530;52.084;5.146;2023-04-10T05:16:59;17.60;59.90
48734;DHT22;34530;52.084;5.146;2023-04-10T05:19:24;17.60;59.90
48734;DHT22;34530;52.084;5.146;2023-04-10T05:21:50;17.60;59.90
48734;DHT22;34530;52.084;5.146;2023-04-10T05:24:16;17.60;59.90
48734;DHT22;34530;52.084;5.146;2023-04-10T05:26:41;17.60;59.90
48734;DHT22;34530;52.084;5.146;2023-04-10T05:29:07;17.60;59.90
48734;DHT22;34530;52.084;5.146;2023-04-10T05:31:32;17.60;59.90
48734;DHT22;34530;52.084;5.146;2023-04-10T05:33:58;17.50;59.80
48734;DHT22;34530;52.084;5.146;2023-04-10T05:36:24;17.60;59.90
48734;DHT22;34530;52.084;5.146;2023-04-10T05:38:50;17.60;60.60
48734;DHT22;34530;52.084;5.146;2023-04-10T05:41:15;17.50;59.80
48734;DHT22;34530;52.084;5.146;2023-04-10T05:43:41;17.50;59.80
48734;DHT22;34530;52.084;5.146;2023-04-10T05:46:06;17.50;59.70
48734;DHT22;34530;52.084;5.146;2023-04-10T05:48:32;17.50;59.80
48734;DHT22;34530;52.084;5.146;2023-04-10T05:50:58;17.50;59.70
48734;DHT22;34530;52.084;5.146;2023-04-10T05:53:27;17.50;59.80
48734;DHT22;34530;52.084;5.146;2023-04-10T05:55:57;17.50;59.70
48734;DHT22;34530;52.084;5.146;2023-04-10T05:58:24;17.50;59.80
48734;DHT22;34530;52.084;5.146;2023-04-10T06:00:50;17.50;59.80
48734;DHT22;34530;52.084;5.146;2023-04-10T06:03:17;17.50;59.80
48734;DHT22;34530;52.084;5.146;2023-04-10T06:05:43;17.50;59.80
48734;DHT22;34530;52.084;5.146;2023-04-10T06:08:08;17.50;59.80
48734;DHT22;34530;52.084;5.146;2023-04-10T06:10:34;17.50;59.80
48734;DHT22;34530;52.084;5.146;2023-04-10T06:13:00;17.50;59.80
48734;DHT22;34530;52.084;5.146;2023-04-10T06:15:26;17.50;59.80
48734;DHT22;34530;52.084;5.146;2023-04-10T06:17:51;17.50;59.80
48734;DHT22;34530;52.084;5.146;2023-04-10T06:20:18;17.40;59.70
48734;DHT22;34530;52.084;5.146;2023-04-10T06:22:44;17.40;59.70
48734;DHT22;34530;52.084;5.146;2023-04-10T06:25:09;17.40;59.80
48734;DHT22;34530;52.084;5.146;2023-04-10T06:27:35;17.40;59.80
48734;DHT22;34530;52.084;5.146;2023-04-10T06:30:01;17.40;59.70
48734;DHT22;34530;52.084;5.146;2023-04-10T06:32:26;17.40;59.80
48734;DHT22;34530;52.084;5.146;2023-04-10T06:34:52;17.40;59.70
48734;DHT22;34530;52.084;5.146;2023-04-10T06:37:17;17.40;59.80
48734;DHT22;34530;52.084;5.146;2023-04-10T06:39:43;17.40;59.70
48734;DHT22;34530;52.084;5.146;2023-04-10T06:42:09;17.40;59.70
48734;DHT22;34530;52.084;5.146;2023-04-10T06:44:34;17.40;59.70
48734;DHT22;34530;52.084;5.146;2023-04-10T06:47:00;17.40;59.70
48734;DHT22;34530;52.084;5.146;2023-04-10T06:49:25;17.40;59.70
48734;DHT22;34530;52.084;5.146;2023-04-10T06:51:51;17.30;59.70
48734;DHT22;34530;52.084;5.146;2023-04-10T06:54:17;17.30;59.70
48734;DHT22;34530;52.084;5.146;2023-04-10T06:56:42;17.30;59.70
48734;DHT22;34530;52.084;5.146;2023-04-10T06:59:08;17.30;59.70
48734;DHT22;34530;52.084;5.146;2023-04-10T07:01:33;17.30;59.70
48734;DHT22;34530;52.084;5.146;2023-04-10T07:03:59;17.30;59.70
48734;DHT22;34530;52.084;5.146;2023-04-10T07:06:24;17.30;61.90
48734;DHT22;34530;52.084;5.146;2023-04-10T07:08:51;17.30;65.10
48734;DHT22;34530;52.084;5.146;2023-04-10T07:11:16;17.40;67.20
48734;DHT22;34530;52.084;5.146;2023-04-10T07:13:42;17.40;68.30
48734;DHT22;34530;52.084;5.146;2023-04-10T07:16:08;17.40;68.70
48734;DHT22;34530;52.084;5.146;2023-04-10T07:18:34;17.40;68.80
48734;DHT22;34530;52.084;5.146;2023-04-10T07:21:00;17.40;68.70
48734;DHT22;34530;52.084;5.146;2023-04-10T07:23:26;17.40;68.60
48734;DHT22;34530;52.084;5.146;2023-04-10T07:25:52;17.40;68.60
48734;DHT22;34530;52.084;5.146;2023-04-10T07:28:17;17.40;68.40
48734;DHT22;34530;52.084;5.146;2023-04-10T07:30:43;17.50;68.00
48734;DHT22;34530;52.084;5.146;2023-04-10T07:33:09;17.80;66.60
48734;DHT22;34530;52.084;5.146;2023-04-10T07:35:34;17.70;66.70
48734;DHT22;34530;52.084;5.146;2023-04-10T07:38:01;17.60;66.50
48734;DHT22;34530;52.084;5.146;2023-04-10T07:40:26;17.60;66.30
48734;DHT22;34530;52.084;5.146;2023-04-10T07:42:52;17.60;66.20
48734;DHT22;34530;52.084;5.146;2023-04-10T07:45:17;17.50;66.00
48734;DHT22;34530;52.084;5.146;2023-04-10T07:47:43;17.50;65.90
48734;DHT22;34530;52.084;5.146;2023-04-10T07:50:09;17.50;65.90
48734;DHT22;34530;52.084;5.146;2023-04-10T07:52:34;17.50;65.80
48734;DHT22;34530;52.084;5.146;2023-04-10T07:55:03;17.50;65.80
48734;DHT22;34530;52.084;5.146;2023-04-10T07:57:29;17.50;65.70
48734;DHT22;34530;52.084;5.146;2023-04-10T07:59:56;17.50;65.70
48734;DHT22;34530;52.084;5.146;2023-04-10T08:02:22;17.50;65.70
48734;DHT22;34530;52.084;5.146;2023-04-10T08:04:47;17.50;65.60
48734;DHT22;34530;52.084;5.146;2023-04-10T08:07:13;17.50;65.40
48734;DHT22;34530;52.084;5.146;2023-04-10T08:09:38;17.40;65.30
48734;DHT22;34530;52.084;5.146;2023-04-10T08:12:04;17.40;65.00
48734;DHT22;34530;52.084;5.146;2023-04-10T08:14:30;17.40;64.90
48734;DHT22;34530;52.084;5.146;2023-04-10T08:16:55;17.40;64.80
48734;DHT22;34530;52.084;5.146;2023-04-10T08:19:21;17.40;64.70
48734;DHT22;34530;52.084;5.146;2023-04-10T08:21:47;17.40;64.60
48734;DHT22;34530;52.084;5.146;2023-04-10T08:24:13;17.40;64.40
48734;DHT22;34530;52.084;5.146;2023-04-10T08:26:39;17.40;64.30
48734;DHT22;34530;52.084;5.146;2023-04-10T08:29:05;17.40;64.30
48734;DHT22;34530;52.084;5.146;2023-04-10T08:31:30;17.40;64.20
48734;DHT22;34530;52.084;5.146;2023-04-10T08:33:57;17.40;64.80
48734;DHT22;34530;52.084;5.146;2023-04-10T08:36:22;17.40;64.00
48734;DHT22;34530;52.084;5.146;2023-04-10T08:38:48;17.40;63.90
48734;DHT22;34530;52.084;5.146;2023-04-10T08:41:16;17.30;63.80
48734;DHT22;34530;52.084;5.146;2023-04-10T08:43:42;17.30;63.70
48734;DHT22;34530;52.084;5.146;2023-04-10T08:46:09;17.30;63.60
48734;DHT22;34530;52.084;5.146;2023-04-10T08:51:11;17.30;63.60
48734;DHT22;34530;52.084;5.146;2023-04-10T08:53:40;17.30;63.50
48734;DHT22;34530;52.084;5.146;2023-04-10T08:56:11;17.30;63.50
48734;DHT22;34530;52.084;5.146;2023-04-10T08:58:38;17.30;63.50
48734;DHT22;34530;52.084;5.146;2023-04-10T09:01:06;17.30;63.50
48734;DHT22;34530;52.084;5.146;2023-04-10T09:03:31;17.30;63.40
48734;DHT22;34530;52.084;5.146;2023-04-10T09:06:01;17.30;63.40
48734;DHT22;34530;52.084;5.146;2023-04-10T09:08:27;17.30;63.40
48734;DHT22;34530;52.084;5.146;2023-04-10T09:10:54;17.30;63.40
48734;DHT22;34530;52.084;5.146;2023-04-10T09:13:37;17.30;63.40
48734;DHT22;34530;52.084;5.146;2023-04-10T09:16:03;17.30;63.40
48734;DHT22;34530;52.084;5.146;2023-04-10T09:18:44;17.20;63.40
48734;DHT22;34530;52.084;5.146;2023-04-10T09:21:13;17.20;63.20
48734;DHT22;34530;52.084;5.146;2023-04-10T09:23:41;17.20;63.20
48734;DHT22;34530;52.084;5.146;2023-04-10T09:29:02;17.20;63.10
48734;DHT22;34530;52.084;5.146;2023-04-10T09:31:33;17.20;63.10
48734;DHT22;34530;52.084;5.146;2023-04-10T09:34:10;17.20;63.00
48734;DHT22;34530;52.084;5.146;2023-04-10T09:36:36;17.20;63.00
48734;DHT22;34530;52.084;5.146;2023-04-10T09:39:03;17.20;63.00
48734;DHT22;34530;52.084;5.146;2023-04-10T09:41:30;17.20;62.90
48734;DHT22;34530;52.084;5.146;2023-04-10T09:44:07;17.20;62.90
48734;DHT22;34530;52.084;5.146;2023-04-10T09:46:33;17.20;62.80
48734;DHT22;34530;52.084;5.146;2023-04-10T09:48:59;17.20;62.80
48734;DHT22;34530;52.084;5.146;2023-04-10T09:51:34;17.20;62.70
48734;DHT22;34530;52.084;5.146;2023-04-10T09:54:01;17.20;62.70
48734;DHT22;34530;52.084;5.146;2023-04-10T09:56:28;17.20;62.70
48734;DHT22;34530;52.084;5.146;2023-04-10T09:58:57;17.20;62.70
48734;DHT22;34530;52.084;5.146;2023-04-10T10:01:29;17.20;62.70
48734;DHT22;34530;52.084;5.146;2023-04-10T10:04:01;17.20;62.60
48734;DHT22;34530;52.084;5.146;2023-04-10T10:06:29;17.20;62.60
48734;DHT22;34530;52.084;5.146;2023-04-10T10:09:06;17.20;62.60
48734;DHT22;34530;52.084;5.146;2023-04-10T10:11:33;17.20;62.60
48734;DHT22;34530;52.084;5.146;2023-04-10T10:14:02;17.20;62.60
48734;DHT22;34530;52.084;5.146;2023-04-10T10:16:38;17.20;62.60
48734;DHT22;34530;52.084;5.146;2023-04-10T10:21:33;17.20;62.50
48734;DHT22;34530;52.084;5.146;2023-04-10T10:24:00;17.20;62.40
48734;DHT22;34530;52.084;5.146;2023-04-10T10:26:29;17.20;62.50
48734;DHT22;34530;52.084;5.146;2023-04-10T10:28:55;17.20;62.40
48734;DHT22;34530;52.084;5.146;2023-04-10T10:31:24;17.20;62.30
48734;DHT22;34530;52.084;5.146;2023-04-10T10:33:53;17.20;62.30
48734;DHT22;34530;52.084;5.146;2023-04-10T10:36:19;17.20;62.20
48734;DHT22;34530;52.084;5.146;2023-04-10T10:44:51;17.20;62.10
48734;DHT22;34530;52.084;5.146;2023-04-10T10:47:27;17.20;62.20
48734;DHT22;34530;52.084;5.146;2023-04-10T10:49:58;17.20;62.20
48734;DHT22;34530;52.084;5.146;2023-04-10T10:52:48;17.20;62.10
48734;DHT22;34530;52.084;5.146;2023-04-10T10:57:51;17.20;62.10
48734;DHT22;34530;52.084;5.146;2023-04-10T11:00:18;17.20;62.10
48734;DHT22;34530;52.084;5.146;2023-04-10T11:02:44;17.20;62.10
48734;DHT22;34530;52.084;5.146;2023-04-10T11:05:09;17.30;62.10
48734;DHT22;34530;52.084;5.146;2023-04-10T11:11:03;17.30;62.00
48734;DHT22;34530;52.084;5.146;2023-04-10T11:13:39;17.30;62.10
48734;DHT22;34530;52.084;5.146;2023-04-10T11:16:06;17.20;62.10
48734;DHT22;34530;52.084;5.146;2023-04-10T11:21:29;17.30;62.00
48734;DHT22;34530;52.084;5.146;2023-04-10T11:31:55;17.30;61.60
48734;DHT22;34530;52.084;5.146;2023-04-10T11:34:21;17.30;61.50
48734;DHT22;34530;52.084;5.146;2023-04-10T11:36:47;17.30;61.50
48734;DHT22;34530;52.084;5.146;2023-04-10T11:39:13;17.30;61.40
48734;DHT22;34530;52.084;5.146;2023-04-10T11:41:51;17.30;61.30
48734;DHT22;34530;52.084;5.146;2023-04-10T11:44:27;17.30;61.20
48734;DHT22;34530;52.084;5.146;2023-04-10T11:46:53;17.30;61.20
48734;DHT22;34530;52.084;5.146;2023-04-10T11:49:21;17.30;61.10
48734;DHT22;34530;52.084;5.146;2023-04-10T11:51:48;17.30;61.10
48734;DHT22;34530;52.084;5.146;2023-04-10T11:54:25;17.30;61.00
48734;DHT22;34530;52.084;5.146;2023-04-10T11:57:04;17.30;60.90
48734;DHT22;34530;52.084;5.146;2023-04-10T11:59:31;17.30;60.90
48734;DHT22;34530;52.084;5.146;2023-04-10T12:02:10;17.30;61.00
48734;DHT22;34530;52.084;5.146;2023-04-10T12:04:38;17.30;60.80
48734;DHT22;34530;52.084;5.146;2023-04-10T12:07:04;17.30;60.80
48734;DHT22;34530;52.084;5.146;2023-04-10T12:09:30;17.30;60.80
48734;DHT22;34530;52.084;5.146;2023-04-10T12:14:32;17.30;60.70
48734;DHT22;34530;52.084;5.146;2023-04-10T12:16:58;17.30;60.70
48734;DHT22;34530;52.084;5.146;2023-04-10T12:19:25;17.30;60.80
48734;DHT22;34530;52.084;5.146;2023-04-10T12:21:52;17.40;61.00
48734;DHT22;34530;52.084;5.146;2023-04-10T12:27:22;17.60;60.60
48734;DHT22;34530;52.084;5.146;2023-04-10T12:29:50;17.50;60.80
48734;DHT22;34530;52.084;5.146;2023-04-10T12:32:16;17.50;61.00
48734;DHT22;34530;52.084;5.146;2023-04-10T12:34:55;17.40;61.00
48734;DHT22;34530;52.084;5.146;2023-04-10T12:37:49;17.50;61.10
48734;DHT22;34530;52.084;5.146;2023-04-10T12:40:15;17.50;61.10
48734;DHT22;34530;52.084;5.146;2023-04-10T12:42:41;17.40;61.20
48734;DHT22;34530;52.084;5.146;2023-04-10T12:45:08;17.40;61.20
48734;DHT22;34530;52.084;5.146;2023-04-10T12:47:45;17.80;60.20
48734;DHT22;34530;52.084;5.146;2023-04-10T12:50:13;17.70;60.50
48734;DHT22;34530;52.084;5.146;2023-04-10T12:52:44;17.70;60.70
48734;DHT22;34530;52.084;5.146;2023-04-10T12:55:17;17.60;60.70
48734;DHT22;34530;52.084;5.146;2023-04-10T12:57:45;18.00;59.90
48734;DHT22;34530;52.084;5.146;2023-04-10T13:00:14;17.80;60.20
48734;DHT22;34530;52.084;5.146;2023-04-10T13:02:40;17.80;60.40
48734;DHT22;34530;52.084;5.146;2023-04-10T13:05:07;17.70;60.50
48734;DHT22;34530;52.084;5.146;2023-04-10T13:07:33;18.10;59.70
48734;DHT22;34530;52.084;5.146;2023-04-10T13:09:59;17.90;60.00
48734;DHT22;34530;52.084;5.146;2023-04-10T13:12:25;17.80;60.10
48734;DHT22;34530;52.084;5.146;2023-04-10T13:14:53;17.80;60.20
48734;DHT22;34530;52.084;5.146;2023-04-10T13:17:20;17.80;60.30
48734;DHT22;34530;52.084;5.146;2023-04-10T13:19:46;17.70;60.30
48734;DHT22;34530;52.084;5.146;2023-04-10T13:22:12;17.70;60.40
48734;DHT22;34530;52.084;5.146;2023-04-10T13:24:37;17.70;60.40
48734;DHT22;34530;52.084;5.146;2023-04-10T13:27:03;17.70;60.40
48734;DHT22;34530;52.084;5.146;2023-04-10T13:29:29;17.70;60.50
48734;DHT22;34530;52.084;5.146;2023-04-10T13:31:54;17.70;60.50
48734;DHT22;34530;52.084;5.146;2023-04-10T13:34:20;17.70;60.50
48734;DHT22;34530;52.084;5.146;2023-04-10T13:36:45;17.70;60.60
48734;DHT22;34530;52.084;5.146;2023-04-10T13:39:11;17.70;60.60
48734;DHT22;34530;52.084;5.146;2023-04-10T13:41:37;17.70;60.60
48734;DHT22;34530;52.084;5.146;2023-04-10T13:44:02;17.70;60.70
48734;DHT22;34530;52.084;5.146;2023-04-10T13:46:28;17.80;60.50
48734;DHT22;34530;52.084;5.146;2023-04-10T13:48:53;17.70;60.70
48734;DHT22;34530;52.084;5.146;2023-04-10T13:51:19;17.70;61.00
48734;DHT22;34530;52.084;5.146;2023-04-10T13:53:45;17.70;61.30
48734;DHT22;34530;52.084;5.146;2023-04-10T13:56:10;17.70;61.50
48734;DHT22;34530;52.084;5.146;2023-04-10T13:58:36;17.70;61.70
48734;DHT22;34530;52.084;5.146;2023-04-10T14:01:01;17.70;61.90
48734;DHT22;34530;52.084;5.146;2023-04-10T14:03:27;17.80;62.10
48734;DHT22;34530;52.084;5.146;2023-04-10T14:05:53;17.80;62.20
48734;DHT22;34530;52.084;5.146;2023-04-10T14:08:19;17.80;62.30
48734;DHT22;34530;52.084;5.146;2023-04-10T14:10:45;17.80;62.40
48734;DHT22;34530;52.084;5.146;2023-04-10T14:13:15;17.80;62.50
48734;DHT22;34530;52.084;5.146;2023-04-10T14:15:41;17.80;62.50
48734;DHT22;34530;52.084;5.146;2023-04-10T14:18:07;17.80;62.50
48734;DHT22;34530;52.084;5.146;2023-04-10T14:20:32;17.90;62.60
48734;DHT22;34530;52.084;5.146;2023-04-10T14:22:58;17.90;62.60
48734;DHT22;34530;52.084;5.146;2023-04-10T14:25:24;17.90;62.90
48734;DHT22;34530;52.084;5.146;2023-04-10T14:27:49;17.90;63.20
48734;DHT22;34530;52.084;5.146;2023-04-10T14:30:15;17.90;63.30
48734;DHT22;34530;52.084;5.146;2023-04-10T14:32:40;17.90;63.50
48734;DHT22;34530;52.084;5.146;2023-04-10T14:35:06;18.00;63.60
48734;DHT22;34530;52.084;5.146;2023-04-10T14:37:32;18.00;63.60
48734;DHT22;34530;52.084;5.146;2023-04-10T14:39:58;18.00;63.70
48734;DHT22;34530;52.084;5.146;2023-04-10T14:42:24;18.00;63.70
48734;DHT22;34530;52.084;5.146;2023-04-10T14:44:49;18.00;63.80
48734;DHT22;34530;52.084;5.146;2023-04-10T14:47:15;18.00;63.80
48734;DHT22;34530;52.084;5.146;2023-04-10T14:49:41;18.00;63.80
48734;DHT22;34530;52.084;5.146;2023-04-10T14:52:06;18.10;63.90
48734;DHT22;34530;52.084;5.146;2023-04-10T14:54:33;18.10;63.90
48734;DHT22;34530;52.084;5.146;2023-04-10T14:56:58;18.10;63.90
48734;DHT22;34530;52.084;5.146;2023-04-10T14:59:24;18.10;63.90
48734;DHT22;34530;52.084;5.146;2023-04-10T15:01:49;18.10;64.00
48734;DHT22;34530;52.084;5.146;2023-04-10T15:04:16;18.10;64.10
48734;DHT22;34530;52.084;5.146;2023-04-10T15:06:42;18.10;64.10
48734;DHT22;34530;52.084;5.146;2023-04-10T15:09:08;18.10;64.90
48734;DHT22;34530;52.084;5.146;2023-04-10T15:11:33;18.10;64.20
48734;DHT22;34530;52.084;5.146;2023-04-10T15:13:59;18.20;64.20
48734;DHT22;34530;52.084;5.146;2023-04-10T15:16:26;18.20;64.30
48734;DHT22;34530;52.084;5.146;2023-04-10T15:18:52;18.20;64.30
48734;DHT22;34530;52.084;5.146;2023-04-10T15:21:18;18.20;64.30
48734;DHT22;34530;52.084;5.146;2023-04-10T15:23:43;18.20;64.30
48734;DHT22;34530;52.084;5.146;2023-04-10T15:26:13;18.20;64.40
48734;DHT22;34530;52.084;5.146;2023-04-10T15:28:40;18.20;64.30
48734;DHT22;34530;52.084;5.146;2023-04-10T15:31:07;18.20;64.40
48734;DHT22;34530;52.084;5.146;2023-04-10T15:33:33;18.20;64.50
48734;DHT22;34530;52.084;5.146;2023-04-10T15:36:00;18.20;64.60
48734;DHT22;34530;52.084;5.146;2023-04-10T15:38:27;18.30;64.80
48734;DHT22;34530;52.084;5.146;2023-04-10T15:40:53;18.30;64.80
48734;DHT22;34530;52.084;5.146;2023-04-10T15:43:19;18.30;64.80
48734;DHT22;34530;52.084;5.146;2023-04-10T15:45:44;18.30;64.80
48734;DHT22;34530;52.084;5.146;2023-04-10T15:48:11;18.30;64.80
48734;DHT22;34530;52.084;5.146;2023-04-10T15:50:37;18.30;64.80
48734;DHT22;34530;52.084;5.146;2023-04-10T15:53:04;18.30;64.80
48734;DHT22;34530;52.084;5.146;2023-04-10T15:55:30;18.30;64.70
48734;DHT22;34530;52.084;5.146;2023-04-10T15:57:56;18.30;64.80
48734;DHT22;34530;52.084;5.146;2023-04-10T16:00:21;18.30;64.80
48734;DHT22;34530;52.084;5.146;2023-04-10T16:02:47;18.30;64.80
48734;DHT22;34530;52.084;5.146;2023-04-10T16:05:13;18.30;64.80
48734;DHT22;34530;52.084;5.146;2023-04-10T16:07:39;18.40;64.90
48734;DHT22;34530;52.084;5.146;2023-04-10T16:10:07;18.40;65.00
48734;DHT22;34530;52.084;5.146;2023-04-10T16:12:35;18.40;65.10
48734;DHT22;34530;52.084;5.146;2023-04-10T16:15:01;18.40;65.30